Milo, Missouri
Current Conditions -  °F | °C
As of 3:35 PM on Monday 24 Nov 2014 (Local Time) from KPTS Reporting Station
Clear Clear  
Wind Chill: 51°   Ceiling: Unl
Heat Index: 51°   Visibility: 10mi
Dew Point: 29°   Wind: 9mph
Humidity: 43%   Direction: 290°WNW
Pressure: 29.88"   Gusts: 16mph
Location:  37.76°N, 94.31°W
Report Text: KPTS 242135Z AUTO 29008G14KT 10SM CLR 11/M02 A2988 RMK AO2 T01051017
Loading
Personal Weather Stations






























Interactive Weather Map New forecast layout! Learn more

10-Day Weather Forecast

Advertisements
Track Severe Weather on mobile